Time;durP1;ratioP1;P1;durP2;ratioP2;P2;SDS_P1;SDS_P2;PMS_P1;PMS_P2;Temp;Humidity;BMP_temperature;BMP_pressure;BME280_temperature;BME280_humidity;BME280_pressure;Samples;Min_cycle;Max_cycle;Signal;HPM_P1;HPM_P2
2023/03/30 03:56:24;;;;;;;12.23;6.13;;;;;;;4.86;85.02;100830.47;6263508;27;20073;-86
2023/03/30 03:59:27;;;;;;;15.52;6.57;;;;;;;4.85;86.24;100822.59;5289577;33;32234;-86
2023/03/30 04:02:29;;;;;;;13.93;6.68;;;;;;;4.77;86.54;100825.94;5278544;33;33389;-86
2023/03/30 04:05:32;;;;;;;9.38;5.82;;;;;;;4.78;84.43;100825.78;5278256;33;33887;-86
2023/03/30 04:08:35;;;;;;;9.30;6.45;;;;;;;4.84;82.98;100818.25;5291780;33;33812;-86
2023/03/30 04:11:39;;;;;;;9.68;5.35;;;;;;;4.71;83.15;100811.28;5292170;33;33613;-86
2023/03/30 04:14:42;;;;;;;14.13;6.45;;;;;;;4.63;84.84;100803.09;5278411;33;33944;-86
2023/03/30 04:17:48;;;;;;;13.85;6.70;;;;;;;4.62;85.06;100798.72;5289933;33;33339;-86
2023/03/30 04:20:51;;;;;;;13.95;7.37;;;;;;;4.59;85.30;100801.62;5279957;33;33661;-86
2023/03/30 04:23:55;;;;;;;14.32;6.72;;;;;;;4.58;86.84;100801.78;5292771;33;33868;-86
2023/03/30 04:27:01;;;;;;;13.45;6.47;;;;;;;4.57;86.01;100795.59;5286989;33;34348;-86
2023/03/30 04:30:05;;;;;;;14.15;6.65;;;;;;;4.50;87.95;100787.28;5278120;33;33802;-84
2023/03/30 04:33:08;;;;;;;12.32;6.55;;;;;;;4.46;84.93;100791.16;5291939;33;34145;-85
2023/03/30 04:36:17;;;;;;;12.52;6.20;;;;;;;4.49;85.17;100798.06;5290665;33;34117;-85
2023/03/30 04:39:20;;;;;;;10.07;6.28;;;;;;;4.58;86.77;100799.09;5276643;33;33689;-85
2023/03/30 04:42:29;;;;;;;10.77;6.35;;;;;;;4.68;84.45;100800.00;5279513;33;33852;-88
2023/03/30 04:45:32;;;;;;;10.77;6.47;;;;;;;4.80;85.61;100800.78;5292590;33;34249;-88
2023/03/30 04:48:35;;;;;;;12.48;5.93;;;;;;;4.86;85.70;100805.63;5280089;33;34037;-88
2023/03/30 04:51:39;;;;;;;13.43;6.97;;;;;;;4.94;85.20;100796.00;5279459;33;33804;-88
2023/03/30 04:54:43;;;;;;;13.00;6.60;;;;;;;5.05;84.10;100787.06;5280281;33;33984;-88
2023/03/30 04:57:47;;;;;;;14.77;7.15;;;;;;;5.07;83.37;100784.25;5307400;33;34718;-86
2023/03/30 05:00:54;;;;;;;11.32;6.90;;;;;;;5.15;81.51;100779.97;5293933;33;34964;-86
2023/03/30 05:03:57;;;;;;;13.82;6.50;;;;;;;5.26;79.58;100780.84;5303784;33;35942;-86
2023/03/30 05:07:01;;;;;;;14.30;6.60;;;;;;;5.26;79.21;100778.16;5289965;33;34832;-86
2023/03/30 05:10:04;;;;;;;16.40;7.03;;;;;;;5.33;78.28;100780.19;5291203;33;35260;-86
2023/03/30 05:13:13;;;;;;;14.90;6.93;;;;;;;5.31;78.33;100782.13;5278411;33;33649;-87
2023/03/30 05:16:16;;;;;;;13.05;7.00;;;;;;;5.34;78.31;100786.34;5289684;33;34526;-86
2023/03/30 05:19:20;;;;;;;10.27;6.87;;;;;;;5.49;78.41;100790.34;5289204;33;33547;-86
2023/03/30 05:22:23;;;;;;;11.80;6.65;;;;;;;5.57;77.42;100784.34;5289236;33;35222;-86
2023/03/30 05:25:27;;;;;;;15.35;6.75;;;;;;;5.57;75.50;100787.84;5289909;33;34279;-86
2023/03/30 05:28:30;;;;;;;10.25;6.82;;;;;;;5.55;74.44;100787.13;5290158;33;33911;-86
2023/03/30 05:31:34;;;;;;;14.43;7.75;;;;;;;5.60;75.23;100776.91;5277554;33;33933;-86
2023/03/30 05:34:38;;;;;;;17.08;6.80;;;;;;;5.61;77.15;100783.91;5290150;33;33651;-86
2023/03/30 05:37:42;;;;;;;19.30;6.65;;;;;;;5.77;75.37;100777.22;5289367;33;33407;-86
2023/03/30 05:40:51;;;;;;;14.05;6.62;;;;;;;5.90;75.33;100777.81;5289393;33;34131;-86
2023/03/30 05:43:56;;;;;;;14.80;6.35;;;;;;;5.96;73.31;100777.28;5291351;33;35256;-93
2023/03/30 05:47:02;;;;;;;14.13;7.20;;;;;;;6.03;72.67;100766.91;5291224;33;34017;-88
2023/03/30 05:50:06;;;;;;;11.90;6.18;;;;;;;6.17;73.28;100765.63;5280267;33;33896;-88
2023/03/30 05:53:10;;;;;;;16.12;6.53;;;;;;;6.15;71.96;100765.78;5290981;33;33702;-86
2023/03/30 05:56:14;;;;;;;11.15;5.70;;;;;;;6.25;70.94;100769.31;5316776;28;34571;-85
2023/03/30 05:59:20;;;;;;;15.02;5.97;;;;;;;6.20;69.79;100768.03;5271363;33;33691;-86
2023/03/30 06:02:26;;;;;;;15.57;6.72;;;;;;;6.24;69.61;100772.13;5283517;33;33289;-86
2023/03/30 06:05:33;;;;;;;14.73;7.05;;;;;;;6.41;68.80;100774.09;5271498;33;33689;-86
2023/03/30 06:08:36;;;;;;;12.37;6.37;;;;;;;6.67;68.81;100765.47;5278424;33;33139;-86
2023/03/30 06:11:39;;;;;;;12.60;6.45;;;;;;;6.82;66.30;100759.56;5277182;33;33604;-86
2023/03/30 06:14:43;;;;;;;14.48;6.85;;;;;;;6.91;66.72;100765.87;5286428;33;34616;-86
2023/03/30 06:17:47;;;;;;;13.32;6.53;;;;;;;7.13;65.10;100769.19;5287895;33;33875;-86
2023/03/30 06:20:51;;;;;;;11.27;6.32;;;;;;;7.02;65.07;100765.69;5288729;33;34086;-86
2023/03/30 06:23:54;;;;;;;9.77;5.57;;;;;;;7.22;63.72;100753.06;5288929;33;34541;-86
2023/03/30 06:26:58;;;;;;;7.43;5.53;;;;;;;7.31;63.19;100756.69;5270418;33;34452;-86
2023/03/30 06:30:02;;;;;;;14.63;7.15;;;;;;;7.20;64.14;100752.41;5281874;33;32377;-86
2023/03/30 06:33:06;;;;;;;11.75;6.03;;;;;;;7.39;64.48;100755.97;5285806;33;33899;-86
2023/03/30 06:36:12;;;;;;;12.27;5.95;;;;;;;7.72;62.99;100758.06;5310937;33;36635;-88
2023/03/30 06:39:16;;;;;;;14.35;6.70;;;;;;;7.80;61.71;100751.94;5287512;33;34764;-86
2023/03/30 06:42:19;;;;;;;12.88;6.12;;;;;;;7.60;61.92;100737.81;5289420;33;34412;-86
2023/03/30 06:45:24;;;;;;;13.10;6.03;;;;;;;7.53;62.46;100733.22;5282075;33;33871;-86
2023/03/30 06:48:28;;;;;;;13.40;6.50;;;;;;;7.55;63.07;100736.59;5286518;33;33952;-86
2023/03/30 06:51:36;;;;;;;12.30;5.97;;;;;;;7.75;61.97;100739.97;5295843;33;33745;-86
2023/03/30 06:54:40;;;;;;;10.48;6.45;;;;;;;7.65;62.35;100732.84;5286805;33;34667;-86
2023/03/30 06:57:43;;;;;;;11.20;6.97;;;;;;;7.65;63.36;100738.22;5288900;33;33871;-86
2023/03/30 07:00:46;;;;;;;15.35;6.53;;;;;;;7.65;63.28;100742.72;5287015;33;33659;-86
2023/03/30 07:03:52;;;;;;;10.40;6.45;;;;;;;7.55;63.96;100737.44;5289567;33;32842;-86
2023/03/30 07:06:56;;;;;;;12.05;6.62;;;;;;;7.63;64.83;100739.34;5303230;33;34222;-87
2023/03/30 07:09:59;;;;;;;15.32;7.15;;;;;;;7.57;65.61;100742.63;5271414;33;33792;-88
2023/03/30 07:13:02;;;;;;;14.23;7.53;;;;;;;7.64;64.05;100746.41;5268272;33;35248;-88
2023/03/30 07:16:06;;;;;;;11.48;6.60;;;;;;;7.63;66.75;100750.91;5291142;33;34283;-88
2023/03/30 07:19:09;;;;;;;11.50;6.35;;;;;;;7.71;65.17;100744.81;5281408;33;33946;-88
2023/03/30 07:22:12;;;;;;;10.80;6.03;;;;;;;7.79;64.54;100744.91;5284005;33;34061;-88
2023/03/30 07:25:16;;;;;;;13.68;7.53;;;;;;;7.87;64.34;100742.31;5280709;33;34526;-88
2023/03/30 07:28:19;;;;;;;13.95;7.10;;;;;;;8.15;65.46;100736.88;5293105;33;33906;-88
2023/03/30 07:31:23;;;;;;;12.00;6.28;;;;;;;8.25;63.62;100729.63;5290289;33;33574;-88
2023/03/30 07:34:26;;;;;;;11.05;6.75;;;;;;;8.38;62.70;100731.91;5291310;33;34316;-91
2023/03/30 07:37:30;;;;;;;14.93;6.35;;;;;;;8.52;62.84;100738.59;5270752;33;35209;-92
2023/03/30 07:40:33;;;;;;;15.43;6.78;;;;;;;8.57;62.48;100747.88;5266288;33;34863;-92
2023/03/30 07:43:39;;;;;;;11.45;6.75;;;;;;;8.77;61.78;100743.13;5293097;33;33808;-88
2023/03/30 07:46:42;;;;;;;11.95;6.07;;;;;;;9.12;62.03;100733.25;5282231;33;33768;-88
2023/03/30 07:49:46;;;;;;;15.20;6.30;;;;;;;9.25;60.21;100736.38;5275511;33;36243;-88
2023/03/30 07:52:50;;;;;;;11.43;6.55;;;;;;;9.13;61.01;100731.44;5273177;33;33908;-87
2023/03/30 07:55:54;;;;;;;12.82;6.60;;;;;;;9.23;63.02;100735.69;5291826;33;34015;-88
2023/03/30 07:58:57;;;;;;;11.30;5.78;;;;;;;9.37;62.05;100747.69;5283819;33;34765;-87
2023/03/30 08:02:05;;;;;;;10.90;6.40;;;;;;;9.75;61.56;100740.09;5275764;33;34457;-86
2023/03/30 08:05:10;;;;;;;10.52;6.70;;;;;;;9.82;58.63;100737.59;5279535;33;34118;-87
2023/03/30 08:08:19;;;;;;;12.02;6.75;;;;;;;9.96;58.49;100736.94;5291206;33;34390;-88
2023/03/30 08:11:22;;;;;;;13.27;7.37;;;;;;;9.72;59.31;100727.81;5305485;33;35045;-88
2023/03/30 08:14:26;;;;;;;11.60;6.57;;;;;;;10.03;57.64;100737.12;5297352;33;33868;-88
2023/03/30 08:17:29;;;;;;;11.48;6.87;;;;;;;10.43;58.41;100728.28;5296252;33;33912;-88
2023/03/30 08:20:35;;;;;;;13.43;7.28;;;;;;;10.40;56.82;100734.84;5303248;33;33801;-87
2023/03/30 08:23:38;;;;;;;10.43;6.20;;;;;;;10.71;56.32;100728.78;5306636;33;34215;-87
2023/03/30 08:26:40;;;;;;;12.37;7.00;;;;;;;11.33;55.42;100718.19;5307802;33;33932;-89
2023/03/30 08:29:43;;;;;;;9.48;6.37;;;;;;;10.98;54.87;100727.56;5295937;33;34244;-89
2023/03/30 08:32:47;;;;;;;11.00;7.03;;;;;;;10.84;56.41;100720.16;5308680;33;33863;-88
2023/03/30 08:35:51;;;;;;;13.55;6.93;;;;;;;10.40;55.71;100725.94;5309131;33;34245;-89
2023/03/30 08:38:54;;;;;;;12.32;6.78;;;;;;;10.03;58.30;100724.50;5281303;33;33881;-89
2023/03/30 08:42:23;;;;;;;12.52;6.53;;;;;;;10.39;57.66;100719.72;5292941;33;34567;-89
2023/03/30 08:45:34;;;;;;;15.60;7.40;;;;;;;10.60;56.59;100721.87;5308681;33;33798;-87
2023/03/30 08:48:41;;;;;;;10.65;6.50;;;;;;;10.81;57.70;100717.81;5307085;33;32468;-87
2023/03/30 08:51:45;;;;;;;12.90;6.90;;;;;;;11.13;56.24;100728.50;5294614;33;33941;-86
2023/03/30 08:54:50;;;;;;;14.00;7.62;;;;;;;11.14;56.33;100723.97;5290368;33;35069;-87
2023/03/30 08:58:21;;;;;;;13.27;7.00;;;;;;;10.74;56.60;100711.44;5278046;33;35297;-87
2023/03/30 09:01:35;;;;;;;12.32;7.03;;;;;;;10.77;58.08;100713.81;5305674;33;33905;-87
2023/03/30 09:04:57;;;;;;;14.20;7.12;;;;;;;11.03;56.27;100718.97;5308130;33;34327;-87
2023/03/30 09:08:03;;;;;;;12.55;7.18;;;;;;;10.76;57.42;100720.19;5307434;33;35769;-87
2023/03/30 09:11:13;;;;;;;14.63;7.20;;;;;;;10.99;56.33;100698.75;5307821;33;33823;-87
2023/03/30 09:14:45;;;;;;;17.35;7.32;;;;;;;11.18;57.79;100686.75;5307777;33;34009;-87
2023/03/30 09:17:54;;;;;;;13.95;7.18;;;;;;;11.52;56.80;100698.06;5304636;33;34664;-87
2023/03/30 09:20:59;;;;;;;;;;;;;;;11.40;56.81;100691.34;5310561;33;34323;-87
2023/03/30 09:24:13;;;;;;;14.27;7.18;;;;;;;11.36;56.62;100687.34;5308292;33;34176;-87
2023/03/30 09:27:44;;;;;;;14.02;7.20;;;;;;;11.17;56.88;100685.06;5292870;33;33934;-87
2023/03/30 09:31:07;;;;;;;11.40;7.30;;;;;;;10.85;57.39;100685.00;5307493;33;33732;-87
2023/03/30 09:34:43;;;;;;;12.68;7.87;;;;;;;11.27;57.26;100666.84;5308094;33;33601;-88
2023/03/30 09:37:46;;;;;;;16.77;8.35;;;;;;;11.53;56.60;100680.03;5308067;33;33807;-87
2023/03/30 09:41:11;;;;;;;12.32;7.68;;;;;;;11.87;55.99;100668.88;5297289;33;33804;-87
2023/03/30 09:44:30;;;;;;;13.52;7.65;;;;;;;12.05;55.81;100660.50;5313167;33;33535;-87
2023/03/30 09:47:36;;;;;;;13.57;7.68;;;;;;;12.06;56.29;100647.84;5311277;33;34740;-87
2023/03/30 09:50:42;;;;;;;11.85;7.78;;;;;;;12.17;56.58;100648.25;5307785;33;33490;-87
2023/03/30 09:53:48;;;;;;;12.73;7.80;;;;;;;12.49;54.49;100640.87;5306654;33;33609;-87
2023/03/30 09:56:53;;;;;;;14.48;8.15;;;;;;;12.45;57.43;100651.19;5300362;33;157383;-87
2023/03/30 09:59:58;;;;;;;14.13;8.02;;;;;;;12.84;57.12;100647.44;5303913;33;34638;-87
2023/03/30 10:03:04;;;;;;;17.10;8.73;;;;;;;12.91;54.53;100642.94;5302155;33;35126;-87
2023/03/30 10:06:16;;;;;;;11.63;8.02;;;;;;;13.08;53.99;100642.75;5306983;33;33772;-87
2023/03/30 10:09:22;;;;;;;13.88;7.75;;;;;;;13.05;54.31;100629.63;5299905;33;34738;-87
2023/03/30 10:12:27;;;;;;;13.65;8.73;;;;;;;13.14;55.47;100632.03;5306828;33;33946;-87
2023/03/30 10:15:30;;;;;;;13.50;7.90;;;;;;;13.89;52.43;100635.38;5294629;33;33476;-87
2023/03/30 10:18:43;;;;;;;15.25;8.63;;;;;;;14.04;52.43;100632.63;5305771;33;34336;-87
2023/03/30 10:21:53;;;;;;;15.02;8.23;;;;;;;13.69;53.57;100639.75;5303614;33;33715;-87
2023/03/30 10:24:57;;;;;;;14.10;8.90;;;;;;;13.55;53.81;100622.56;5307472;33;33954;-90
2023/03/30 10:28:05;;;;;;;13.10;8.60;;;;;;;12.94;53.84;100612.84;5294677;33;34361;-88
2023/03/30 10:31:15;;;;;;;12.88;8.88;;;;;;;12.98;57.24;100613.28;5294510;33;33594;-87
2023/03/30 10:34:27;;;;;;;14.43;8.73;;;;;;;13.17;54.48;100603.78;5307356;33;34240;-87
2023/03/30 10:37:35;;;;;;;15.95;9.05;;;;;;;13.27;55.85;100598.94;5306808;33;33644;-87
2023/03/30 10:40:41;;;;;;;14.05;9.15;;;;;;;13.41;55.65;100599.09;5305460;33;33948;-86
2023/03/30 10:43:48;;;;;;;14.80;9.45;;;;;;;13.34;56.82;100588.22;5293793;33;33662;-87
2023/03/30 10:46:56;;;;;;;15.57;8.95;;;;;;;13.74;56.03;100578.63;5304793;33;35024;-87
2023/03/30 10:50:17;;;;;;;15.07;9.27;;;;;;;13.94;53.49;100577.97;5306791;33;34380;-87
2023/03/30 10:53:29;;;;;;;14.20;9.55;;;;;;;13.74;53.51;100573.22;5310013;33;33546;-87
2023/03/30 10:56:41;;;;;;;15.00;8.88;;;;;;;13.64;53.98;100570.00;5306294;33;33652;-87
2023/03/30 11:00:11;;;;;;;14.68;9.05;;;;;;;13.58;54.83;100565.38;5290839;33;34411;-87
2023/03/30 11:03:27;;;;;;;16.65;9.50;;;;;;;14.04;54.23;100554.97;5290329;33;31794;-87
2023/03/30 11:06:34;;;;;;;24.55;9.02;;;;;;;14.36;53.13;100554.53;5305916;33;34488;-87
2023/03/30 11:09:44;;;;;;;16.45;9.38;;;;;;;14.71;49.74;100563.53;5319695;33;34983;-89
2023/03/30 11:12:50;;;;;;;;;;;;;;;14.64;50.87;100560.81;5320035;33;35462;-91
2023/03/30 11:16:24;;;;;;;17.30;8.93;;;;;;;14.70;50.67;100562.72;5308267;33;34522;-87
2023/03/30 11:19:37;;;;;;;19.75;9.45;;;;;;;14.63;51.50;100553.72;5294692;33;34320;-87
2023/03/30 11:22:47;;;;;;;16.30;9.43;;;;;;;13.67;54.32;100553.38;5308086;33;34340;-86
2023/03/30 11:25:59;;;;;;;14.77;9.75;;;;;;;13.78;54.67;100550.16;5305721;33;33999;-87
2023/03/30 11:29:37;;;;;;;19.20;9.52;;;;;;;13.48;54.47;100540.50;5308923;33;34559;-87
2023/03/30 11:32:52;;;;;;;18.27;9.63;;;;;;;13.43;55.97;100537.56;5307452;33;34042;-87
2023/03/30 11:36:03;;;;;;;16.23;9.25;;;;;;;13.49;56.96;100544.88;5308975;33;34501;-87
2023/03/30 11:39:14;;;;;;;15.38;9.32;;;;;;;13.79;55.79;100543.72;5300403;33;34266;-87
2023/03/30 11:42:35;;;;;;;15.98;9.52;;;;;;;13.69;56.00;100539.66;5312174;33;35282;-89
2023/03/30 11:45:52;;;;;;;19.83;9.68;;;;;;;13.86;56.30;100523.97;5311087;33;35220;-91
2023/03/30 11:49:23;;;;;;;18.08;10.27;;;;;;;14.06;54.90;100525.81;5295046;33;33614;-87
2023/03/30 11:52:34;;;;;;;13.13;8.88;;;;;;;14.34;55.11;100518.72;5305869;33;34556;-87
2023/03/30 11:56:08;;;;;;;13.40;9.15;;;;;;;14.66;53.24;100514.53;5307648;33;33848;-89
2023/03/30 11:59:36;;;;;;;15.90;8.90;;;;;;;15.08;53.67;100509.91;5296537;33;33681;-86
2023/03/30 12:02:50;;;;;;;13.25;8.73;;;;;;;15.47;51.46;100503.72;5304423;33;33803;-87
2023/03/30 12:06:02;;;;;;;15.18;9.45;;;;;;;15.68;50.42;100504.59;5308639;33;33709;-86
2023/03/30 12:09:26;;;;;;;13.40;9.10;;;;;;;15.42;52.44;100501.63;5308314;33;33914;-86
2023/03/30 12:12:37;;;;;;;13.65;9.38;;;;;;;15.46;52.89;100488.47;5306179;33;34210;-90
2023/03/30 12:15:52;;;;;;;14.45;8.48;;;;;;;15.93;51.79;100485.81;5291154;33;34168;-87
2023/03/30 12:19:08;;;;;;;15.40;9.35;;;;;;;16.33;49.97;100464.84;5311574;33;34364;-87
2023/03/30 12:22:22;;;;;;;15.18;8.70;;;;;;;17.10;49.40;100462.22;5318808;33;34187;-87
2023/03/30 12:26:02;;;;;;;18.87;8.88;;;;;;;17.92;46.02;100444.00;5293725;33;33951;-86
2023/03/30 12:29:11;;;;;;;14.95;8.68;;;;;;;17.63;46.65;100442.78;5304278;33;33936;-87
2023/03/30 12:32:34;;;;;;;20.65;9.23;;;;;;;17.48;46.80;100436.84;5307915;33;34595;-86
2023/03/30 12:36:15;;;;;;;14.43;8.75;;;;;;;17.39;46.91;100436.28;5305639;33;34590;-87
2023/03/30 12:39:30;;;;;;;14.32;8.90;;;;;;;16.93;48.91;100427.37;5302611;33;34227;-89
2023/03/30 12:42:38;;;;;;;12.93;8.57;;;;;;;16.78;48.88;100419.50;5307810;33;34177;-87
2023/03/30 12:46:01;;;;;;;23.87;8.90;;;;;;;17.16;48.25;100409.66;5319318;33;33820;-88
2023/03/30 12:49:50;;;;;;;12.18;8.65;;;;;;;17.29;49.36;100406.84;5322399;33;33688;-87
2023/03/30 12:53:17;;;;;;;15.95;9.15;;;;;;;16.95;48.68;100402.69;5273469;33;34367;-87
2023/03/30 12:56:44;;;;;;;15.90;8.93;;;;;;;16.70;49.18;100395.28;5307350;33;34834;-86
2023/03/30 13:00:17;;;;;;;13.95;8.80;;;;;;;16.29;51.24;100387.50;5312241;33;34005;-87
2023/03/30 13:03:32;;;;;;;12.55;8.57;;;;;;;16.29;50.71;100374.78;5308230;33;35190;-91
2023/03/30 13:06:39;;;;;;;15.10;8.50;;;;;;;16.26;51.97;100377.06;5300797;33;33806;-87
2023/03/30 13:10:22;;;;;;;12.30;8.55;;;;;;;15.77;52.78;100370.34;5307557;33;34202;-87
2023/03/30 13:13:51;;;;;;;11.95;8.32;;;;;;;15.91;52.95;100365.72;5308037;33;34562;-87
2023/03/30 13:16:53;;;;;;;12.93;8.60;;;;;;;15.99;52.56;100368.19;5287886;33;34238;-87
2023/03/30 13:20:55;;;;;;;14.20;7.97;;;;;;;16.24;52.72;100365.63;5308658;33;35272;-87
2023/03/30 13:24:20;;;;;;;13.85;8.25;;;;;;;16.36;53.72;100371.22;5307379;33;35223;-87
2023/03/30 13:27:33;;;;;;;12.40;7.93;;;;;;;16.16;52.95;100372.09;5306539;33;34840;-86
2023/03/30 13:30:36;;;;;;;11.63;7.90;;;;;;;15.76;53.41;100368.66;5302621;33;33413;-87
2023/03/30 13:33:46;;;;;;;12.90;8.13;;;;;;;15.63;56.32;100362.19;5290072;33;34031;-86
2023/03/30 13:37:17;;;;;;;11.90;8.00;;;;;;;15.52;55.70;100360.13;5277567;33;33880;-86
2023/03/30 13:40:25;;;;;;;12.32;7.68;;;;;;;15.32;56.30;100356.59;5307243;33;34942;-86
2023/03/30 13:44:09;;;;;;;14.05;8.30;;;;;;;15.14;57.29;100358.06;5304377;33;34732;-86
2023/03/30 13:47:42;;;;;;;13.82;7.53;;;;;;;15.18;58.37;100344.91;5292298;33;34506;-85
2023/03/30 13:50:50;;;;;;;11.73;7.70;;;;;;;15.42;59.68;100344.28;5287635;33;34749;-85
2023/03/30 13:54:02;;;;;;;15.02;7.25;;;;;;;15.54;56.52;100336.34;5292148;33;34006;-87
2023/03/30 13:57:43;;;;;;;11.00;7.25;;;;;;;15.44;57.11;100335.91;5293452;33;34011;-89
2023/03/30 14:01:01;;;;;;;9.07;6.40;;;;;;;15.62;56.93;100327.97;5288910;33;34530;-86
2023/03/30 14:04:05;;;;;;;9.80;6.62;;;;;;;15.64;56.56;100325.03;5292862;33;34354;-88
2023/03/30 14:07:15;;;;;;;11.57;7.00;;;;;;;15.50;57.06;100313.38;5292002;33;33826;-87
2023/03/30 14:10:20;;;;;;;16.65;6.72;;;;;;;15.38;57.37;100298.78;5300602;33;34479;-86
2023/03/30 14:13:23;;;;;;;9.63;6.25;;;;;;;15.57;58.19;100291.66;5291729;33;33940;-87
2023/03/30 14:16:31;;;;;;;11.32;6.62;;;;;;;15.54;56.30;100289.38;5294297;33;33988;-86
2023/03/30 14:19:40;;;;;;;10.30;6.70;;;;;;;15.63;57.17;100280.78;5307545;33;33909;-87
2023/03/30 14:22:47;;;;;;;12.82;7.30;;;;;;;15.68;56.14;100282.91;5305599;33;34475;-85
2023/03/30 14:25:57;;;;;;;12.07;6.37;;;;;;;15.20;58.16;100275.84;5306781;33;34705;-85
2023/03/30 14:29:13;;;;;;;12.35;7.03;;;;;;;15.20;59.33;100275.03;5306424;33;32278;-90
2023/03/30 14:32:30;;;;;;;9.70;6.35;;;;;;;15.02;59.37;100267.53;5328528;27;34223;-88
2023/03/30 14:35:39;;;;;;;11.98;7.30;;;;;;;15.16;58.78;100252.91;5297171;33;33816;-90
2023/03/30 14:38:46;;;;;;;12.23;7.78;;;;;;;15.13;59.24;100241.66;5308264;33;33787;-88
2023/03/30 14:41:51;;;;;;;15.40;8.20;;;;;;;14.90;60.76;100233.97;5309488;33;35271;-88
2023/03/30 14:44:56;;;;;;;13.68;7.95;;;;;;;14.93;60.96;100226.25;5310043;33;34302;-90
2023/03/30 14:48:01;;;;;;;12.07;7.32;;;;;;;15.33;60.44;100217.22;5309019;33;35054;-92
2023/03/30 14:51:08;;;;;;;14.13;7.65;;;;;;;15.40;59.93;100215.31;5309621;33;33887;-88
2023/03/30 14:54:40;;;;;;;12.48;7.70;;;;;;;14.97;60.19;100207.69;5386854;27;34908;-86
2023/03/30 14:57:56;;;;;;;11.52;7.53;;;;;;;14.97;60.44;100196.84;5309430;33;33801;-89
2023/03/30 15:01:03;;;;;;;12.50;7.50;;;;;;;14.79;61.08;100202.09;5297258;33;33663;-90
2023/03/30 15:04:16;;;;;;;12.48;7.30;;;;;;;15.00;61.71;100192.87;5298829;33;33584;-90
2023/03/30 15:07:22;;;;;;;14.27;7.20;;;;;;;14.93;61.09;100188.31;5293832;33;34705;-89
2023/03/30 15:10:47;;;;;;;12.70;7.10;;;;;;;14.86;61.95;100182.06;5278765;33;33321;-89
2023/03/30 15:13:56;;;;;;;12.23;7.45;;;;;;;14.93;60.50;100182.06;5274244;33;33702;-89
2023/03/30 15:17:07;;;;;;;11.73;7.10;;;;;;;14.67;62.44;100177.50;5274342;33;33448;-89
2023/03/30 15:20:11;;;;;;;15.23;7.30;;;;;;;14.53;62.79;100168.53;5274814;33;34560;-89
2023/03/30 15:23:15;;;;;;;13.27;7.25;;;;;;;14.52;62.97;100175.00;5274843;33;33703;-89
2023/03/30 15:26:20;;;;;;;12.37;7.47;;;;;;;14.31;64.71;100167.06;5274291;33;34088;-87
2023/03/30 15:29:24;;;;;;;12.18;6.75;;;;;;;14.17;66.75;100161.63;5273112;33;33887;-89
2023/03/30 15:32:42;;;;;;;9.23;6.68;;;;;;;14.28;65.44;100168.31;5274760;33;34398;-89
2023/03/30 15:35:47;;;;;;;12.13;6.60;;;;;;;14.36;64.93;100169.94;5275003;33;34323;-92
2023/03/30 15:38:52;;;;;;;12.32;7.55;;;;;;;14.41;64.52;100187.25;5275052;33;36144;-92
2023/03/30 15:41:55;;;;;;;11.63;6.60;;;;;;;14.52;63.52;100192.09;5273972;33;33752;-90
2023/03/30 15:45:08;;;;;;;11.88;7.10;;;;;;;14.57;63.68;100199.59;5273895;33;33876;-88
2023/03/30 15:48:11;;;;;;;12.07;6.55;;;;;;;14.63;65.58;100197.94;5274260;33;33990;-87
2023/03/30 15:51:20;;;;;;;12.00;7.30;;;;;;;14.46;66.79;100200.19;5274328;33;33834;-87
2023/03/30 15:54:32;;;;;;;11.33;7.00;;;;;;;14.45;64.79;100212.91;5276729;33;33850;-87
